Time;durP1;ratioP1;P1;durP2;ratioP2;P2;SDS_P1;SDS_P2;PMS_P1;PMS_P2;Temp;Humidity;BMP_temperature;BMP_pressure;BME280_temperature;BME280_humidity;BME280_pressure;Samples;Min_cycle;Max_cycle;Signal;HPM_P1;HPM_P2
2022/08/01 00:00:43;;;;;;;6.32;2.40;;;589.50;1689.60;;;;;;4987158;28;20030;-78
2022/08/01 00:03:16;;;;;;;10.02;2.45;;;589.50;1715.20;;;;;;4993875;28;20026;-81
2022/08/01 00:05:43;;;;;;;5.03;2.53;;;589.50;1740.80;;;;;;4977038;28;20057;-79
2022/08/01 00:08:08;;;;;;;4.85;2.80;;;589.40;1766.40;;;;;;4977079;28;20384;-78
2022/08/01 00:10:34;;;;;;;5.63;2.72;;;589.40;1766.40;;;;;;4977004;28;20030;-78
2022/08/01 00:13:00;;;;;;;10.25;2.78;;;589.40;1766.40;;;;;;4976613;28;20026;-78
2022/08/01 00:15:26;;;;;;;6.45;2.80;;;589.10;1766.40;;;;;;4994412;28;20505;-78
2022/08/01 00:17:51;;;;;;;7.43;2.72;;;589.10;1792.00;;;;;;4976649;28;20667;-82
2022/08/01 00:20:17;;;;;;;5.22;2.40;;;589.00;1792.00;;;;;;4993952;28;20510;-80
2022/08/01 00:22:43;;;;;;;4.47;2.80;;;588.80;1817.60;;;;;;4976320;28;20033;-80
2022/08/01 00:25:09;;;;;;;10.10;2.70;;;588.80;1792.00;;;;;;4976456;28;20080;-79
2022/08/01 00:27:34;;;;;;;4.38;2.65;;;588.80;1817.60;;;;;;4993459;28;20019;-78
2022/08/01 00:30:01;;;;;;;4.75;2.60;;;588.80;1792.00;;;;;;4993904;28;20030;-79
2022/08/01 00:32:29;;;;;;;4.82;2.72;;;588.90;1792.00;;;;;;4993759;28;20021;-78
2022/08/01 00:34:55;;;;;;;6.63;3.35;;;588.90;1817.60;;;;;;4992317;28;20494;-80
2022/08/01 00:37:21;;;;;;;4.80;2.80;;;588.90;1792.00;;;;;;4993677;28;20069;-80
2022/08/01 00:39:46;;;;;;;5.78;2.55;;;588.90;1792.00;;;;;;4976033;28;20034;-78
2022/08/01 00:42:13;;;;;;;5.07;2.53;;;588.80;1792.00;;;;;;4993130;28;20605;-78
2022/08/01 00:44:40;;;;;;;3.70;2.58;;;564.10;1843.20;;;;;;4993428;28;20029;-79
2022/08/01 00:47:07;;;;;;;6.80;2.83;;;564.10;1843.20;;;;;;4975905;28;20023;-79
2022/08/01 00:49:33;;;;;;;3.40;2.30;;;564.10;2099.20;;;;;;4993309;28;20029;-78
2022/08/01 00:51:59;;;;;;;7.13;3.08;;;564.10;1817.60;;;;;;4992293;28;20030;-78
2022/08/01 00:54:26;;;;;;;6.90;2.50;;;563.90;1817.60;;;;;;4993298;28;20030;-78
2022/08/01 00:56:53;;;;;;;3.80;2.50;;;563.90;1843.20;;;;;;4976636;28;20019;-77
2022/08/01 00:59:21;;;;;;;4.13;2.22;;;563.80;1868.80;;;;;;4973478;28;20092;-79
2022/08/01 01:01:48;;;;;;;4.57;2.55;;;563.80;1868.80;;;;;;4993280;28;20073;-79
2022/08/01 01:04:14;;;;;;;3.97;2.80;;;563.70;1894.40;;;;;;4975002;28;20041;-79
2022/08/01 01:07:08;;;;;;;6.30;2.58;;;563.60;1894.40;;;;;;4993473;28;20018;-80
2022/08/01 01:09:43;;;;;;;5.13;2.75;;;563.60;1894.40;;;;;;4975559;28;20031;-79
2022/08/01 01:12:17;;;;;;;4.90;2.90;;;563.60;1894.40;;;;;;4993035;28;20530;-77
2022/08/01 01:15:02;;;;;;;5.75;2.88;;;563.50;1894.40;;;;;;4992814;28;20033;-78
2022/08/01 01:17:38;;;;;;;5.97;2.40;;;563.60;1894.40;;;;;;4975926;28;20559;-78
2022/08/01 01:20:08;;;;;;;7.90;2.40;;;563.60;1868.80;;;;;;4992965;28;20038;-78
2022/08/01 01:22:45;;;;;;;9.30;2.33;;;563.60;1868.80;;;;;;4992944;28;20035;-78
2022/08/01 01:25:31;;;;;;;3.92;2.17;;;563.50;1894.40;;;;;;4992521;28;20026;-78
2022/08/01 01:28:17;;;;;;;9.65;2.63;;;563.50;1868.80;;;;;;4992522;28;20021;-78
2022/08/01 01:30:48;;;;;;;5.10;2.40;;;563.50;1868.80;;;;;;4975325;28;20114;-81
2022/08/01 01:33:16;;;;;;;3.60;2.42;;;563.50;1843.20;;;;;;4992985;28;20023;-80
2022/08/01 01:35:47;;;;;;;9.30;2.70;;;563.40;1843.20;;;;;;4993127;28;20022;-80
2022/08/01 01:38:25;;;;;;;8.23;2.42;;;563.40;1868.80;;;;;;4992596;28;20022;-82
2022/08/01 01:40:52;;;;;;;6.32;2.53;;;563.50;1843.20;;;;;;4992882;28;20562;-80
2022/08/01 01:43:20;;;;;;;6.00;2.47;;;563.50;1843.20;;;;;;4974870;28;20436;-81
2022/08/01 01:45:48;;;;;;;5.97;2.88;;;563.50;1843.20;;;;;;4974480;28;20026;-83
2022/08/01 01:48:17;;;;;;;4.53;2.75;;;563.40;1868.80;;;;;;4992353;28;20034;-81
2022/08/01 01:50:46;;;;;;;5.38;2.60;;;563.40;1843.20;;;;;;4974869;28;20109;-77
2022/08/01 01:53:15;;;;;;;5.50;2.95;;;563.30;1868.80;;;;;;4992651;28;20105;-79
2022/08/01 01:55:44;;;;;;;4.82;2.53;;;563.30;1868.80;;;;;;4990369;28;20061;-81
2022/08/01 01:58:13;;;;;;;5.55;3.20;;;563.30;1868.80;;;;;;4992156;28;20077;-78
2022/08/01 02:00:40;;;;;;;5.15;2.72;;;563.40;1868.80;;;;;;4992774;28;20031;-78
2022/08/01 02:03:08;;;;;;;6.47;2.97;;;563.40;1868.80;;;;;;4992417;28;20395;-80
2022/08/01 02:05:36;;;;;;;4.32;2.53;;;563.40;1868.80;;;;;;4992304;28;20045;-79
2022/08/01 02:08:04;;;;;;;4.88;2.83;;;563.50;1868.80;;;;;;4975243;28;20033;-80
2022/08/01 02:10:32;;;;;;;5.38;2.95;;;563.40;1868.80;;;;;;4992357;28;20033;-78
2022/08/01 02:13:01;;;;;;;7.40;3.33;;;563.50;1868.80;;;;;;4991960;28;20105;-79
2022/08/01 02:15:31;;;;;;;6.25;3.15;;;563.50;1843.20;;;;;;4974753;28;20053;-78
2022/08/01 02:17:57;;;;;;;5.55;2.88;;;563.50;1843.20;;;;;;4992000;28;20022;-80
2022/08/01 02:20:26;;;;;;;4.80;2.67;;;563.50;1843.20;;;;;;4974416;28;20112;-80
2022/08/01 02:22:57;;;;;;;4.97;2.40;;;563.60;1843.20;;;;;;4992925;28;20030;-77
2022/08/01 02:25:26;;;;;;;7.10;2.35;;;563.60;1843.20;;;;;;4973296;28;20041;-78
2022/08/01 02:28:00;;;;;;;4.85;2.67;;;563.60;1817.60;;;;;;4978453;28;20140;-78
2022/08/01 02:30:31;;;;;;;5.03;2.65;;;563.50;1817.60;;;;;;4996348;28;20019;-79
2022/08/01 02:33:05;;;;;;;5.22;2.60;;;563.50;1817.60;;;;;;4996344;28;20028;-78
2022/08/01 02:35:38;;;;;;;8.82;3.00;;;563.50;1843.20;;;;;;4996301;28;20018;-82
2022/08/01 02:38:06;;;;;;;6.22;2.90;;;563.50;1843.20;;;;;;4978413;28;20023;-80
2022/08/01 02:40:35;;;;;;;8.02;2.85;;;563.60;1868.80;;;;;;4995869;28;20404;-80
2022/08/01 02:43:03;;;;;;;4.15;2.90;;;563.50;1894.40;;;;;;4996043;28;20029;-80
2022/08/01 02:45:30;;;;;;;4.65;2.80;;;563.60;1868.80;;;;;;4996042;28;20026;-78
2022/08/01 02:48:05;;;;;;;3.55;2.58;;;563.60;1894.40;;;;;;4995732;28;20022;-80
2022/08/01 02:50:35;;;;;;;6.22;2.65;;;563.70;1868.80;;;;;;4995661;28;20031;-78
2022/08/01 02:53:03;;;;;;;9.88;2.92;;;563.70;1894.40;;;;;;4995810;28;20018;-79
2022/08/01 02:55:32;;;;;;;7.28;2.80;;;563.70;1868.80;;;;;;4978475;28;20026;-78
2022/08/01 02:58:00;;;;;;;4.70;2.97;;;563.60;1894.40;;;;;;4995617;28;20029;-79
2022/08/01 03:00:28;;;;;;;7.10;3.45;;;563.60;1894.40;;;;;;4995600;28;20485;-78
2022/08/01 03:02:57;;;;;;;7.05;3.20;;;563.60;1894.40;;;;;;4978259;28;20038;-79
2022/08/01 03:05:25;;;;;;;9.65;4.07;;;563.70;1894.40;;;;;;4978200;28;20038;-80
2022/08/01 03:07:52;;;;;;;5.20;2.85;;;563.40;1945.60;;;;;;4978112;28;20531;-78
2022/08/01 03:10:19;;;;;;;5.90;3.42;;;563.40;1945.60;;;;;;4977844;28;20030;-82
2022/08/01 03:12:46;;;;;;;5.85;3.10;;;563.50;1920.00;;;;;;4977903;28;20037;-80
2022/08/01 03:15:13;;;;;;;9.25;3.20;;;563.50;1920.00;;;;;;4995438;28;20023;-79
2022/08/01 03:17:43;;;;;;;6.72;3.40;;;563.50;1920.00;;;;;;4995713;28;20022;-78
2022/08/01 03:20:12;;;;;;;10.07;3.40;;;563.40;1945.60;;;;;;4995487;28;20118;-79
2022/08/01 03:22:40;;;;;;;12.77;3.17;;;563.30;1971.20;;;;;;4995788;28;20029;-78
2022/08/01 03:25:07;;;;;;;8.68;3.40;;;563.20;1971.20;;;;;;4977859;28;20026;-80
2022/08/01 03:27:37;;;;;;;5.57;3.35;;;563.30;1971.20;;;;;;4995577;28;20038;-80
2022/08/01 03:30:04;;;;;;;5.50;3.13;;;563.20;1971.20;;;;;;4974825;28;20077;-78
2022/08/01 03:32:31;;;;;;;9.55;3.95;;;563.20;1971.20;;;;;;4985618;28;20038;-78
2022/08/01 03:34:57;;;;;;;5.70;2.95;;;563.30;1971.20;;;;;;4985411;28;20045;-78
2022/08/01 03:37:45;;;;;;;4.78;3.65;;;563.30;1971.20;;;;;;4986508;28;20031;-78
2022/08/01 03:40:21;;;;;;;7.18;3.67;;;563.40;1971.20;;;;;;4988579;28;20069;-77
2022/08/01 03:42:50;;;;;;;6.45;3.08;;;563.30;1971.20;;;;;;4976890;28;20018;-81
2022/08/01 03:45:40;;;;;;;7.47;4.00;;;563.40;1971.20;;;;;;4970486;28;20636;-82
2022/08/01 03:48:13;;;;;;;8.52;3.38;;;563.40;1971.20;;;;;;4986406;28;20027;-82
2022/08/01 03:50:47;;;;;;;5.97;3.80;;;563.20;1996.80;;;;;;4969553;28;20022;-78
2022/08/01 03:53:14;;;;;;;7.80;3.50;;;563.20;2022.40;;;;;;4986815;28;20129;-77
2022/08/01 03:55:42;;;;;;;9.77;3.50;;;538.50;2022.40;;;;;;4984948;28;20070;-79
2022/08/01 03:58:09;;;;;;;6.55;3.75;;;563.20;2022.40;;;;;;4968739;28;20033;-80
2022/08/01 04:00:41;;;;;;;6.80;4.05;;;563.20;2022.40;;;;;;4969291;28;20030;-80
2022/08/01 04:03:08;;;;;;;6.68;3.83;;;563.20;1996.80;;;;;;4968213;28;20033;-79
2022/08/01 04:05:35;;;;;;;8.50;3.63;;;563.20;2022.40;;;;;;4985284;28;20507;-78
2022/08/01 04:08:02;;;;;;;8.10;3.58;;;563.20;2022.40;;;;;;4969560;28;20492;-80
2022/08/01 04:10:29;;;;;;;7.75;3.47;;;563.30;2022.40;;;;;;4968181;28;20030;-79
2022/08/01 04:12:55;;;;;;;6.78;3.70;;;563.20;2022.40;;;;;;4985086;28;20014;-78
2022/08/01 04:15:21;;;;;;;10.90;3.88;;;563.30;2022.40;;;;;;4986391;28;20058;-77
2022/08/01 04:17:47;;;;;;;6.40;3.38;;;563.20;2022.40;;;;;;4985116;28;20046;-79
2022/08/01 04:20:13;;;;;;;11.48;3.90;;;563.20;2022.40;;;;;;4985059;28;20484;-79
2022/08/01 04:22:39;;;;;;;5.32;3.45;;;563.30;2022.40;;;;;;4985688;28;20022;-81
2022/08/01 04:25:10;;;;;;;8.38;3.83;;;563.30;2022.40;;;;;;4984992;28;20054;-80
2022/08/01 04:27:38;;;;;;;12.10;4.38;;;563.40;2022.40;;;;;;4984616;28;20030;-81
2022/08/01 04:30:06;;;;;;;6.60;3.92;;;563.30;2073.60;;;;;;4967265;28;20061;-86
2022/08/01 04:32:37;;;;;;;7.25;4.13;;;538.50;2048.00;;;;;;4987548;28;20030;-84
2022/08/01 04:35:07;;;;;;;8.90;3.90;;;563.20;2048.00;;;;;;4967563;28;20026;-81
2022/08/01 04:37:36;;;;;;;9.23;4.05;;;563.40;2048.00;;;;;;4967697;28;20031;-85
2022/08/01 04:40:05;;;;;;;9.88;4.55;;;563.30;2048.00;;;;;;4967052;28;20130;-81
2022/08/01 04:42:32;;;;;;;9.65;4.13;;;563.40;2048.00;;;;;;4968114;28;20062;-81
2022/08/01 04:44:58;;;;;;;11.07;4.38;;;563.50;2048.00;;;;;;4966480;28;20026;-81
2022/08/01 04:47:25;;;;;;;8.30;4.90;;;563.50;2022.40;;;;;;4986053;28;20050;-82
2022/08/01 04:49:52;;;;;;;9.73;4.57;;;563.60;2022.40;;;;;;4984671;28;20022;-81
2022/08/01 04:52:18;;;;;;;8.93;4.90;;;563.60;2022.40;;;;;;4984526;28;20061;-81
2022/08/01 04:54:44;;;;;;;9.93;4.80;;;563.70;2022.40;;;;;;4968732;28;20026;-82
2022/08/01 04:57:09;;;;;;;5.90;4.65;;;563.70;2022.40;;;;;;4967788;28;20049;-82
2022/08/01 04:59:40;;;;;;;9.93;5.95;;;563.70;2048.00;;;;;;4967224;28;20548;-82
2022/08/01 05:02:08;;;;;;;8.45;4.63;;;563.80;2048.00;;;;;;4969330;28;20018;-82
2022/08/01 05:04:34;;;;;;;10.82;5.57;;;563.80;2073.60;;;;;;4986876;28;20038;-82
2022/08/01 05:07:00;;;;;;;15.98;5.32;;;563.90;2048.00;;;;;;4967062;28;20077;-81
2022/08/01 05:09:26;;;;;;;9.63;4.50;;;563.90;1996.80;;;;;;4985561;28;20127;-82
2022/08/01 05:11:52;;;;;;;7.03;4.40;;;563.90;1971.20;;;;;;4984906;28;20019;-81
2022/08/01 05:14:17;;;;;;;7.32;4.68;;;564.10;1971.20;;;;;;4984141;28;20391;-82
2022/08/01 05:16:45;;;;;;;11.55;3.83;;;564.10;1945.60;;;;;;4968453;28;20056;-82
2022/08/01 05:19:11;;;;;;;5.68;4.55;;;564.10;1971.20;;;;;;4966981;28;20035;-82
2022/08/01 05:21:37;;;;;;;5.80;3.88;;;564.10;1971.20;;;;;;4966887;28;20023;-82
2022/08/01 05:24:06;;;;;;;9.70;4.35;;;564.10;1971.20;;;;;;4984392;28;20026;-79
2022/08/01 05:26:32;;;;;;;5.00;4.00;;;564.10;2022.40;;;;;;4967143;28;20023;-81
2022/08/01 05:28:59;;;;;;;8.43;4.45;;;564.10;2022.40;;;;;;4983807;28;20018;-80
2022/08/01 05:31:25;;;;;;;9.23;4.80;;;564.00;2022.40;;;;;;4983610;28;20022;-81
2022/08/01 05:33:50;;;;;;;11.13;3.72;;;564.00;1996.80;;;;;;4966383;28;20547;-81
2022/08/01 05:36:16;;;;;;;9.82;4.40;;;564.10;2048.00;;;;;;4983845;28;20428;-81
2022/08/01 05:38:42;;;;;;;7.15;3.75;;;588.80;2022.40;;;;;;4982616;28;20034;-80
2022/08/01 05:41:07;;;;;;;6.30;4.05;;;588.90;2022.40;;;;;;4984804;28;20046;-80
2022/08/01 05:43:33;;;;;;;9.82;4.32;;;588.90;1996.80;;;;;;4984240;28;20026;-80
2022/08/01 05:45:59;;;;;;;14.57;5.35;;;588.90;1996.80;;;;;;4966051;28;20392;-80
2022/08/01 05:48:25;;;;;;;7.40;3.95;;;589.10;1996.80;;;;;;4984866;28;20018;-79
2022/08/01 05:50:51;;;;;;;6.32;4.07;;;589.10;1945.60;;;;;;4982329;28;20022;-80
2022/08/01 05:53:16;;;;;;;7.28;4.10;;;589.20;1920.00;;;;;;4966897;28;20019;-81
2022/08/01 05:55:42;;;;;;;7.78;3.95;;;589.20;1920.00;;;;;;4992355;28;20059;-81
2022/08/01 05:58:08;;;;;;;13.55;4.07;;;589.30;1920.00;;;;;;4993965;28;20026;-79
2022/08/01 06:00:34;;;;;;;8.02;4.43;;;589.50;1894.40;;;;;;4976196;28;20026;-80
2022/08/01 06:03:00;;;;;;;6.25;4.10;;;589.40;1920.00;;;;;;4993929;28;20024;-81
2022/08/01 06:05:26;;;;;;;11.68;3.90;;;589.60;1894.40;;;;;;4976628;28;20489;-81
2022/08/01 06:07:51;;;;;;;6.05;4.18;;;589.60;1843.20;;;;;;4976376;28;20054;-81
2022/08/01 06:10:17;;;;;;;9.30;3.60;;;589.70;1843.20;;;;;;4993753;28;20056;-80
2022/08/01 06:12:43;;;;;;;10.73;3.63;;;614.40;1843.20;;;;;;4993584;28;20035;-77
2022/08/01 06:15:09;;;;;;;5.65;3.72;;;614.40;1817.60;;;;;;4976480;28;20060;-78
2022/08/01 06:17:35;;;;;;;6.57;3.88;;;614.50;1817.60;;;;;;4976078;28;20031;-78
2022/08/01 06:20:01;;;;;;;13.13;4.22;;;614.60;1766.40;;;;;;4976287;28;20042;-78
2022/08/01 06:22:27;;;;;;;9.43;3.40;;;614.70;1740.80;;;;;;4976442;28;20057;-79
2022/08/01 06:24:52;;;;;;;5.57;2.65;;;614.70;1740.80;;;;;;4993517;28;20046;-78
2022/08/01 06:27:18;;;;;;;4.95;2.85;;;614.80;1715.20;;;;;;4993740;28;20105;-78
2022/08/01 06:29:44;;;;;;;10.68;3.80;;;614.90;1715.20;;;;;;4976240;28;20041;-80
2022/08/01 06:32:10;;;;;;;6.38;3.63;;;615.00;1689.60;;;;;;4975977;28;20072;-79
2022/08/01 06:34:36;;;;;;;5.53;3.45;;;615.10;1664.00;;;;;;4990191;28;20038;-79
2022/08/01 06:37:02;;;;;;;7.90;3.88;;;615.20;1638.40;;;;;;4982784;28;20033;-78
2022/08/01 06:39:27;;;;;;;6.68;3.78;;;615.30;1638.40;;;;;;4993428;28;20038;-79
2022/08/01 06:41:53;;;;;;;13.02;4.05;;;615.30;1638.40;;;;;;4975842;28;20137;-80
2022/08/01 06:44:19;;;;;;;6.35;3.78;;;615.30;1638.40;;;;;;4993646;28;20030;-77
2022/08/01 06:46:44;;;;;;;7.85;3.90;;;640.00;1612.80;;;;;;4993528;28;20447;-78
2022/08/01 06:49:10;;;;;;;8.07;4.13;;;640.10;1612.80;;;;;;4993633;28;20109;-80
2022/08/01 06:51:36;;;;;;;6.93;4.38;;;640.10;1612.80;;;;;;4993450;28;20022;-79
2022/08/01 06:54:01;;;;;;;6.95;4.55;;;640.20;1612.80;;;;;;4976389;28;20058;-79
2022/08/01 06:56:27;;;;;;;7.95;3.90;;;640.40;1612.80;;;;;;4993429;28;20023;-78
2022/08/01 06:58:56;;;;;;;5.30;3.13;;;640.40;1587.20;;;;;;4993371;28;20510;-80
2022/08/01 07:01:21;;;;;;;7.65;3.83;;;640.40;1587.20;;;;;;4975431;28;20488;-82
2022/08/01 07:03:47;;;;;;;6.63;3.40;;;640.40;1612.80;;;;;;4993369;28;20041;-81
2022/08/01 07:06:14;;;;;;;7.53;4.18;;;640.50;1587.20;;;;;;4975904;28;20122;-78
2022/08/01 07:08:40;;;;;;;8.30;3.38;;;640.70;1536.00;;;;;;4976071;28;20073;-77
2022/08/01 07:11:06;;;;;;;5.60;3.42;;;640.70;1536.00;;;;;;4975950;28;20033;-79
2022/08/01 07:13:32;;;;;;;6.07;3.53;;;640.90;1536.00;;;;;;4980012;28;20060;-81
2022/08/01 07:15:58;;;;;;;10.38;4.30;;;665.60;1612.80;;;;;;4979219;28;20468;-80
2022/08/01 07:18:23;;;;;;;7.97;4.45;;;665.80;1612.80;;;;;;4979513;28;20038;-78
2022/08/01 07:20:50;;;;;;;9.95;3.70;;;665.90;1561.60;;;;;;4996821;28;20065;-81
2022/08/01 07:23:16;;;;;;;6.57;2.65;;;666.00;1536.00;;;;;;4997040;28;20081;-81
2022/08/01 07:25:42;;;;;;;6.13;3.25;;;666.10;1510.40;;;;;;4979378;28;20029;-80
2022/08/01 07:28:09;;;;;;;4.03;2.70;;;666.10;1510.40;;;;;;4996972;28;20015;-83
2022/08/01 07:30:35;;;;;;;6.72;3.58;;;666.20;1484.80;;;;;;4996776;28;20026;-80
2022/08/01 07:33:01;;;;;;;5.10;3.17;;;666.20;1510.40;;;;;;4996452;28;20053;-82
2022/08/01 07:35:27;;;;;;;7.90;3.17;;;666.20;1510.40;;;;;;4996364;28;20396;-81
2022/08/01 07:37:53;;;;;;;4.40;3.17;;;666.20;1510.40;;;;;;4996623;28;20010;-75
2022/08/01 07:40:19;;;;;;;5.63;3.65;;;666.30;1510.40;;;;;;4978403;28;20042;-77
2022/08/01 07:42:45;;;;;;;7.68;3.22;;;666.40;1510.40;;;;;;4996196;28;20492;-76
2022/08/01 07:45:11;;;;;;;6.55;3.35;;;691.20;1510.40;;;;;;4996271;28;20470;-79
2022/08/01 07:47:37;;;;;;;5.90;3.28;;;691.20;1484.80;;;;;;4996008;28;20477;-76
2022/08/01 07:50:05;;;;;;;6.03;2.90;;;691.30;1510.40;;;;;;4996361;28;20034;-77
2022/08/01 07:52:32;;;;;;;6.00;2.75;;;691.50;1484.80;;;;;;4996104;28;20121;-81
2022/08/01 07:54:58;;;;;;;4.78;3.08;;;691.50;1459.20;;;;;;4995546;28;20030;-80
2022/08/01 07:57:24;;;;;;;7.32;2.80;;;691.60;1510.40;;;;;;4988071;28;20030;-77
2022/08/01 07:59:51;;;;;;;3.83;2.78;;;691.60;1433.60;;;;;;4995951;28;20069;-77
2022/08/01 08:02:17;;;;;;;4.95;3.03;;;691.60;1459.20;;;;;;4995797;28;20109;-80
2022/08/01 08:04:43;;;;;;;4.57;2.80;;;691.60;1459.20;;;;;;4995503;28;20118;-75
2022/08/01 08:07:08;;;;;;;6.15;3.00;;;691.70;1433.60;;;;;;4995895;28;20023;-80
2022/08/01 08:09:34;;;;;;;6.50;2.67;;;691.70;1433.60;;;;;;4995998;28;20032;-74
2022/08/01 08:12:00;;;;;;;6.30;2.78;;;691.70;1433.60;;;;;;4995642;28;20023;-81
2022/08/01 08:14:26;;;;;;;4.25;2.63;;;691.70;1433.60;;;;;;4996009;28;20533;-76
2022/08/01 08:16:52;;;;;;;8.05;3.17;;;691.70;1408.00;;;;;;4995628;28;20117;-77
2022/08/01 08:19:18;;;;;;;6.93;2.83;;;691.90;1433.60;;;;;;4995406;28;20088;-81
2022/08/01 08:21:43;;;;;;;7.72;3.17;;;691.80;1408.00;;;;;;4986992;28;20032;-74
2022/08/01 08:24:23;;;;;;;6.53;2.90;;;691.80;1408.00;;;;;;4984743;28;20031;-78
2022/08/01 08:26:52;;;;;;;3.97;2.72;;;691.80;1408.00;;;;;;4990361;28;20475;-75
2022/08/01 08:29:19;;;;;;;10.38;3.30;;;691.90;1408.00;;;;;;4995640;28;20105;-82
2022/08/01 08:31:45;;;;;;;4.93;2.80;;;692.10;1408.00;;;;;;4995134;28;20026;-77
2022/08/01 08:34:12;;;;;;;4.90;2.88;;;692.00;1408.00;;;;;;4994030;28;20105;-78
2022/08/01 08:36:38;;;;;;;5.13;3.47;;;692.00;1382.40;;;;;;4983255;28;20105;-77
2022/08/01 08:39:04;;;;;;;6.18;2.92;;;692.10;1382.40;;;;;;4978029;28;20030;-82
2022/08/01 08:41:34;;;;;;;5.50;3.45;;;716.90;1408.00;;;;;;4995158;28;20088;-80
2022/08/01 08:44:07;;;;;;;8.88;2.75;;;716.90;1408.00;;;;;;4995282;28;20026;-78
2022/08/01 08:46:39;;;;;;;6.78;2.95;;;716.90;1408.00;;;;;;4995021;28;20383;-78
2022/08/01 08:49:06;;;;;;;7.45;3.15;;;717.00;1408.00;;;;;;4995240;28;20031;-82
2022/08/01 08:51:34;;;;;;;12.93;2.92;;;716.90;1408.00;;;;;;4995060;28;20072;-80
2022/08/01 08:54:02;;;;;;;6.15;2.60;;;717.00;1408.00;;;;;;4995028;28;20088;-82
2022/08/01 08:56:33;;;;;;;3.30;2.40;;;717.10;1356.80;;;;;;4995108;28;20023;-80
2022/08/01 08:59:00;;;;;;;5.15;2.80;;;717.10;1356.80;;;;;;4977744;28;20050;-81
2022/08/01 09:01:26;;;;;;;6.05;2.88;;;717.20;1356.80;;;;;;4994881;28;20365;-79
2022/08/01 09:03:52;;;;;;;4.65;3.08;;;717.30;1356.80;;;;;;4995038;28;20480;-83
2022/08/01 09:06:18;;;;;;;5.97;2.80;;;717.40;1356.80;;;;;;4995040;28;20090;-81
2022/08/01 09:08:44;;;;;;;6.10;3.00;;;717.40;1356.80;;;;;;4994587;28;20022;-83
2022/08/01 09:11:10;;;;;;;6.78;3.10;;;717.40;1356.80;;;;;;4994674;28;20122;-79
2022/08/01 09:13:36;;;;;;;8.52;3.25;;;717.50;1356.80;;;;;;4994649;28;20428;-77
2022/08/01 09:16:02;;;;;;;6.38;3.20;;;717.50;1331.20;;;;;;4994466;28;20053;-78
2022/08/01 09:18:29;;;;;;;5.45;2.88;;;717.50;1305.60;;;;;;4980534;28;20499;-82
2022/08/01 09:21:23;;;;;;;3.60;2.75;;;717.50;1305.60;;;;;;4977073;28;20038;-78
2022/08/01 09:23:52;;;;;;;5.85;2.80;;;717.70;1280.00;;;;;;4992807;28;20092;-78
2022/08/01 09:26:21;;;;;;;10.55;3.45;;;717.70;1305.60;;;;;;4994533;28;20109;-80
2022/08/01 09:28:48;;;;;;;8.90;2.83;;;742.40;1331.20;;;;;;4976948;28;20416;-82
2022/08/01 09:31:17;;;;;;;9.38;4.18;;;742.50;1356.80;;;;;;4994214;28;20046;-81
2022/08/01 09:33:57;;;;;;;4.97;3.30;;;742.70;1331.20;;;;;;4992838;28;20484;-82
2022/08/01 09:36:48;;;;;;;28.90;5.55;;;742.90;1280.00;;;;;;4977395;28;20083;-77
2022/08/01 09:39:15;;;;;;;9.63;3.17;;;743.00;1280.00;;;;;;4976685;28;20066;-77
2022/08/01 09:41:42;;;;;;;4.43;3.08;;;743.00;1254.40;;;;;;4978995;28;20051;-82
2022/08/01 09:44:07;;;;;;;5.32;3.10;;;743.10;1254.40;;;;;;4972595;28;20042;-79
2022/08/01 09:46:33;;;;;;;6.78;3.50;;;743.30;1254.40;;;;;;4984446;28;20022;-82
2022/08/01 09:49:02;;;;;;;4.65;3.28;;;768.10;1228.80;;;;;;4986656;28;20461;-83
2022/08/01 09:51:29;;;;;;;7.40;3.20;;;768.20;1228.80;;;;;;4987746;28;20076;-78
2022/08/01 09:53:55;;;;;;;7.32;3.25;;;768.40;1203.20;;;;;;4979002;28;20029;-79
2022/08/01 09:56:22;;;;;;;7.35;3.78;;;768.40;1203.20;;;;;;4978765;28;20019;-84
2022/08/01 09:58:54;;;;;;;5.68;3.50;;;768.50;1177.60;;;;;;4979720;28;20519;-81
2022/08/01 10:01:21;;;;;;;8.30;3.10;;;768.60;1177.60;;;;;;4983578;28;20053;-79
2022/08/01 10:04:24;;;;;;;19.60;4.45;;;768.80;1177.60;;;;;;4976556;28;20473;-80
2022/08/01 10:06:53;;;;;;;5.40;2.85;;;793.70;1203.20;;;;;;4941615;28;20039;-80
2022/08/01 10:09:30;;;;;;;11.85;3.63;;;793.90;1177.60;;;;;;4935609;28;20031;-78
2022/08/01 10:11:57;;;;;;;5.95;3.28;;;794.10;1152.00;;;;;;4944012;28;20482;-78
2022/08/01 10:14:25;;;;;;;5.38;3.25;;;794.20;1177.60;;;;;;4927747;28;20057;-81
2022/08/01 10:16:53;;;;;;;5.45;3.50;;;794.50;1152.00;;;;;;4941048;28;20079;-77
2022/08/01 10:19:22;;;;;;;6.47;3.40;;;819.20;1152.00;;;;;;4936422;28;20098;-80
2022/08/01 10:21:52;;;;;;;8.25;3.17;;;819.30;1126.40;;;;;;4925777;28;20030;-78
2022/08/01 10:24:19;;;;;;;15.38;3.38;;;819.30;1100.80;;;;;;4933338;28;20059;-78
2022/08/01 10:26:48;;;;;;;4.95;3.10;;;819.50;1100.80;;;;;;4936700;28;20028;-79
2022/08/01 10:29:18;;;;;;;5.10;3.20;;;819.30;1100.80;;;;;;4932411;28;20055;-78
2022/08/01 10:31:44;;;;;;;9.20;3.72;;;819.70;1100.80;;;;;;4951839;28;20019;-80
2022/08/01 10:34:11;;;;;;;5.82;3.38;;;819.70;1100.80;;;;;;4946133;28;20047;-78
2022/08/01 10:36:38;;;;;;;5.25;3.58;;;819.80;1100.80;;;;;;4943120;28;20074;-81
2022/08/01 10:39:06;;;;;;;5.47;2.75;;;819.80;1075.20;;;;;;4947348;28;20043;-80
2022/08/01 10:41:34;;;;;;;10.82;3.72;;;819.90;1075.20;;;;;;4950675;28;20044;-84
2022/08/01 10:44:02;;;;;;;16.60;2.95;;;819.90;1100.80;;;;;;4972430;28;20129;-78
2022/08/01 10:46:30;;;;;;;16.85;3.72;;;844.80;1075.20;;;;;;4994327;28;20124;-80
2022/08/01 10:49:07;;;;;;;17.55;3.78;;;820.10;1024.00;;;;;;4995807;28;20477;-78
2022/08/01 10:51:38;;;;;;;7.00;2.55;;;844.90;1049.60;;;;;;4997202;28;20023;-77
2022/08/01 10:54:06;;;;;;;5.43;2.80;;;820.10;1024.00;;;;;;4979403;28;20117;-79
2022/08/01 10:56:50;;;;;;;7.45;2.67;;;844.90;1075.20;;;;;;4997208;28;20054;-77
2022/08/01 10:59:27;;;;;;;4.88;2.70;;;844.90;1049.60;;;;;;4979566;28;20076;-80
2022/08/01 11:01:59;;;;;;;3.70;2.40;;;844.90;1049.60;;;;;;4979444;28;20113;-81
2022/08/01 11:05:09;;;;;;;5.95;2.78;;;845.10;1024.00;;;;;;4977497;28;20084;-81
2022/08/01 11:07:51;;;;;;;4.15;2.58;;;845.20;1024.00;;;;;;4981386;28;20500;-81
2022/08/01 11:10:29;;;;;;;8.32;3.00;;;845.10;1024.00;;;;;;4978884;28;20026;-80
2022/08/01 11:12:55;;;;;;;5.90;2.42;;;845.20;998.40;;;;;;4965494;28;20099;-81
2022/08/01 11:15:26;;;;;;;3.75;2.50;;;845.40;998.40;;;;;;4996912;28;20113;-81
2022/08/01 11:17:53;;;;;;;6.10;2.70;;;845.40;1024.00;;;;;;4979151;28;20026;-81
2022/08/01 11:20:26;;;;;;;9.23;2.85;;;845.30;1024.00;;;;;;4979375;28;20022;-81
2022/08/01 11:23:00;;;;;;;7.07;2.72;;;845.40;1024.00;;;;;;4979375;28;20026;-82
2022/08/01 11:25:48;;;;;;;6.60;2.88;;;845.50;1024.00;;;;;;4981565;28;20034;-79
2022/08/01 11:28:14;;;;;;;10.73;3.00;;;845.50;1024.00;;;;;;4996050;28;20368;-85
2022/08/01 11:30:44;;;;;;;8.40;2.53;;;845.60;998.40;;;;;;4977569;28;20560;-83
2022/08/01 11:33:11;;;;;;;3.35;2.50;;;845.60;998.40;;;;;;4978583;28;20057;-84
2022/08/01 11:35:58;;;;;;;6.57;3.20;;;845.70;998.40;;;;;;4984017;28;20117;-81
2022/08/01 11:38:29;;;;;;;6.30;3.50;;;870.40;972.80;;;;;;4991847;28;20582;-83
2022/08/01 11:41:15;;;;;;;6.78;2.50;;;870.50;998.40;;;;;;4977441;28;20104;-86
2022/08/01 11:44:06;;;;;;;9.18;2.88;;;870.50;972.80;;;;;;4980732;28;20562;-81
2022/08/01 11:46:59;;;;;;;3.67;2.75;;;870.70;972.80;;;;;;4966740;28;20832;-85
2022/08/01 11:49:45;;;;;;;6.32;2.58;;;870.70;972.80;;;;;;4976913;28;20022;-83
2022/08/01 11:52:11;;;;;;;4.78;3.03;;;870.80;972.80;;;;;;4996032;28;20030;-86
2022/08/01 11:54:39;;;;;;;3.38;2.40;;;870.80;947.20;;;;;;4979144;28;20539;-83
2022/08/01 11:57:13;;;;;;;4.95;2.60;;;870.90;947.20;;;;;;4978554;28;20027;-85
2022/08/01 11:59:50;;;;;;;6.73;2.60;;;870.90;947.20;;;;;;4993687;28;20046;-80
2022/08/01 12:02:22;;;;;;;6.28;2.70;;;870.90;972.80;;;;;;4980119;28;20029;-82
2022/08/01 12:04:51;;;;;;;9.80;2.97;;;871.00;947.20;;;;;;4971807;28;20054;-80
2022/08/01 12:07:18;;;;;;;7.03;2.65;;;871.00;972.80;;;;;;4982518;28;20372;-84
2022/08/01 12:09:46;;;;;;;4.80;2.42;;;871.00;947.20;;;;;;4977191;28;20081;-84
2022/08/01 12:12:14;;;;;;;5.75;2.55;;;870.70;947.20;;;;;;4993871;28;20027;-82
2022/08/01 12:14:40;;;;;;;4.93;2.55;;;870.90;972.80;;;;;;4988603;28;20030;-84
2022/08/01 12:17:06;;;;;;;6.80;2.58;;;870.50;972.80;;;;;;4993929;28;20030;-79
2022/08/01 12:19:32;;;;;;;4.03;2.85;;;845.50;998.40;;;;;;4995501;28;20038;-77
2022/08/01 12:22:08;;;;;;;6.28;2.50;;;845.40;998.40;;;;;;4996012;28;20341;-80
2022/08/01 12:24:35;;;;;;;4.07;2.95;;;845.20;998.40;;;;;;4978053;28;20026;-80
2022/08/01 12:27:02;;;;;;;4.40;2.92;;;845.60;972.80;;;;;;4996344;28;20510;-80